Rainbow, TX (76077)

9:17 PM CDT on May 03, 2015 (GMT -0500)
Pecan Plantation/Westover | | Change Station
CLOSE
Current Station
Personal Weather Station
Location: Granbury, TX
Elevation: 696 ft
Nearby Weather Stations

Elev 696 ft 32.38 °N, 97.66 °W | Updated 6 seconds ago

Partly Cloudy
Partly Cloudy
73.0 °F
Feels Like 76 °F
N
0.0
Wind Variable Wind from SE
Gusts 5.0 mph

Today
High -- | Low -- °F
--% Chance of Precip.
Yesterday
High -- | Low -- °F
Precip. -- in
6:42 AM 8:13 PM
Full, 100% visible
Pressure 29.95 in
Visibility -9999.0 miles
Clouds Scattered Clouds 3300 ft
Scattered Clouds 6000 ft
Mostly Cloudy 11000 ft
Heat Index 76 °F
Dew Point 60 °F
Humidity 64%
Rainfall 0.00 in
Snow Depth Not available.
UV 0 out of 12
Pollen 7.80 out of 12
Air Quality Not available.
Flu Activity Sporadic
METAR KGDJ 040155Z AUTO 12007KT SCT033 SCT060 BKN110 24/14 A2995 RMK AO2 T02400143 PWINO

More Conditions Fewer Conditions

Pressure 29.95 in
Visibility -9999.0 miles
Clouds Scattered Clouds 3300 ft
Scattered Clouds 6000 ft
Mostly Cloudy 11000 ft
Heat Index 76 °F
Dew Point 60 °F
Humidity 64%
Rainfall 0.00 in
Snow Depth Not available.
UV 0 out of 12
Pollen 7.80 out of 12
Air Quality Not available.
Flu Activity Sporadic
METAR KGDJ 040155Z AUTO 12007KT SCT033 SCT060 BKN110 24/14 A2995 RMK AO2 T02400143 PWINO

More Conditions Fewer Conditions

Nepal has a long way to go to dig out and rebuild from a devastating earthquake. We have teamed up with several charities and organizations to make contributing to the relief effort as easy as possible.
How you can help: Portlight Strategies | Red Cross

10-Day Weather Forecast

Almanac

Astronomy

May. 03, 2015 Rise Set
Actual Time
Civil Twilight
Nautical Twilight
Astronomical Twilight
Moon
Length of Visible Light
Length of Day
Tomorrow will be .
, % of the Moon is Illuminated

Today's Extremes

State Highs State Lows

Community

WunderPhotos

Upload Photos

1,818,464 photos uploaded!

WunderBlogs® & News

Nearby

Air Quality

  Air Quality AQ Index Pollutant
Not available.

Snow Depth

Station Depth Elevation

Earthquake Activity

City Distance Mag. Time & Date
Minimum magnitude displayed is 2.5.

Coastal Water Temperatures

Place Temperature

Stations

Nearby Weather Stations

Station Location Temp. Windchill Dew Point Humidity Wind Precip. Elev Updated Type